createdAt,value
2023-10-01T00:04:52.870Z,102362.25
2023-10-01T00:10:05.510Z,102357.78
2023-10-01T00:15:12.968Z,102363.84
2023-10-01T00:20:30.316Z,102354.34
2023-10-01T00:25:32.828Z,102350.19
2023-10-01T00:30:35.827Z,102363.16
2023-10-01T00:35:42.783Z,102362.25
2023-10-01T00:40:44.496Z,102350.09
2023-10-01T00:45:46.466Z,102348.28
2023-10-01T00:50:48.160Z,102348.28
2023-10-01T00:55:52.817Z,102342.94
2023-10-01T01:00:54.536Z,102333.03
2023-10-01T01:06:05.633Z,102328.69
2023-10-01T01:11:07.254Z,102330.13
2023-10-01T01:16:11.691Z,102326.50
2023-10-01T01:21:14.851Z,102326.53
2023-10-01T01:26:22.090Z,102332.75
2023-10-01T01:31:28.582Z,102333.59
2023-10-01T01:36:31.491Z,102331.88
2023-10-01T01:41:33.796Z,102333.59
2023-10-01T01:46:36.202Z,102338.16
2023-10-01T01:51:38.708Z,102337.31
2023-10-01T01:56:41.546Z,102329.44
2023-10-01T02:01:43.272Z,102325.00
2023-10-01T02:06:47.251Z,102331.94
2023-10-01T02:11:49.852Z,102330.28
2023-10-01T02:16:51.511Z,102341.56
2023-10-01T02:22:01.404Z,102345.19
2023-10-01T02:27:05.188Z,102334.06
2023-10-01T02:32:06.887Z,102335.00
2023-10-01T02:37:09.811Z,102332.41
2023-10-01T02:42:22.250Z,102336.81
2023-10-01T02:47:25.985Z,102339.47
2023-10-01T02:52:37.857Z,102343.81
2023-10-01T02:57:41.472Z,102341.91
2023-10-01T03:02:55.546Z,102331.47
2023-10-01T03:08:06.021Z,102333.97
2023-10-01T03:13:16.291Z,102327.00
2023-10-01T03:18:24.041Z,102313.31
2023-10-01T03:23:25.506Z,102315.22
2023-10-01T03:28:30.123Z,102308.44
2023-10-01T03:33:31.771Z,102311.97
2023-10-01T03:38:33.484Z,102306.03
2023-10-01T03:43:36.695Z,102305.97
2023-10-01T03:48:57.118Z,102321.59
2023-10-01T03:54:07.684Z,102330.19
2023-10-01T03:59:17.197Z,102331.94
2023-10-01T04:04:20.770Z,102342.34
2023-10-01T04:09:27.218Z,102345.63
2023-10-01T04:14:30.977Z,102339.50
2023-10-01T04:19:33.743Z,102331.69
2023-10-01T04:24:35.729Z,102335.97
2023-10-01T04:29:46.237Z,102341.16
2023-10-01T04:34:48.819Z,102342.88
2023-10-01T04:39:50.327Z,102336.75
2023-10-01T04:44:51.879Z,102328.00
2023-10-01T04:49:53.632Z,102324.59
2023-10-01T04:54:59.254Z,102330.59
2023-10-01T05:00:12.033Z,102321.09
2023-10-01T05:05:17.446Z,102321.94
2023-10-01T05:10:19.029Z,102326.31
2023-10-01T05:15:26.069Z,102322.94
2023-10-01T05:20:28.102Z,102313.50
2023-10-01T05:25:33.068Z,102309.16
2023-10-01T05:30:39.720Z,102304.91
2023-10-01T05:35:49.860Z,102310.16
2023-10-01T05:40:56.300Z,102308.41
2023-10-01T05:46:02.988Z,102305.94
2023-10-01T05:51:07.570Z,102313.88
2023-10-01T05:56:16.414Z,102305.22
2023-10-01T06:01:23.010Z,102319.13
2023-10-01T06:06:27.384Z,102320.09
2023-10-01T06:11:39.969Z,102318.41
2023-10-01T06:16:41.755Z,102317.63
2023-10-01T06:21:43.350Z,102331.59
2023-10-01T06:26:46.924Z,102322.16
2023-10-01T06:32:02.106Z,102317.91
2023-10-01T06:37:06.652Z,102323.22
2023-10-01T06:42:22.613Z,102314.56
2023-10-01T06:47:27.320Z,102308.56
2023-10-01T06:52:31.080Z,102305.97
2023-10-01T06:57:34.552Z,102315.63
2023-10-01T07:02:37.903Z,102313.88
2023-10-01T07:07:41.785Z,102308.50
2023-10-01T07:13:01.213Z,102314.00
2023-10-01T07:18:14.725Z,102315.13
2023-10-01T07:23:16.814Z,102316.97
2023-10-01T07:28:20.828Z,102325.34
2023-10-01T07:33:23.756Z,102318.84
2023-10-01T07:38:57.031Z,102322.47
2023-10-01T07:44:09.119Z,102340.88
2023-10-01T07:49:10.811Z,102342.97
2023-10-01T07:54:12.653Z,102363.94
2023-10-01T07:59:35.169Z,102387.41
2023-10-01T08:04:52.324Z,102392.00
2023-10-01T08:09:55.305Z,102393.94
2023-10-01T08:15:16.159Z,102387.38
2023-10-01T08:20:22.942Z,102390.31
2023-10-01T08:25:27.062Z,102386.34
2023-10-01T08:30:40.984Z,102389.28
2023-10-01T08:35:57.910Z,102376.66
2023-10-01T08:41:04.297Z,102391.41
2023-10-01T08:46:17.940Z,102393.59
2023-10-01T08:51:21.034Z,102401.25
2023-10-01T08:56:34.635Z,102395.59
2023-10-01T09:01:36.286Z,102400.03
2023-10-01T09:07:01.277Z,102392.19
2023-10-01T09:12:19.356Z,102388.88
2023-10-01T09:17:27.130Z,102394.28
2023-10-01T09:22:32.096Z,102395.28
2023-10-01T09:27:34.253Z,102399.03
2023-10-01T09:32:55.394Z,102401.97
2023-10-01T09:38:28.596Z,102406.66
2023-10-01T09:43:35.177Z,102416.06
2023-10-01T09:48:49.583Z,102411.03
2023-10-01T09:54:01.318Z,102420.97
2023-10-01T09:59:12.393Z,102424.47
2023-10-01T10:04:21.540Z,102429.00
2023-10-01T10:09:27.620Z,102435.28
2023-10-01T10:14:29.175Z,102435.41
2023-10-01T10:19:48.621Z,102437.53
2023-10-01T10:24:56.087Z,102457.63
2023-10-01T10:29:58.104Z,102469.03
2023-10-01T10:35:05.153Z,102459.41
2023-10-01T10:40:14.880Z,102438.50
2023-10-01T10:45:21.618Z,102454.25
2023-10-01T10:50:40.481Z,102454.28
2023-10-01T10:55:53.608Z,102451.66
2023-10-01T11:01:16.799Z,102464.78
2023-10-01T11:06:31.381Z,102451.50
2023-10-01T11:11:45.117Z,102473.53
2023-10-01T11:16:50.388Z,102468.19
2023-10-01T11:21:56.785Z,102455.63
2023-10-01T11:27:27.239Z,102467.84
2023-10-01T11:33:04.640Z,102483.97
2023-10-01T11:38:15.278Z,102476.72
2023-10-01T11:43:25.006Z,102473.81
2023-10-01T11:48:56.516Z,102483.41
2023-10-01T11:54:11.508Z,102496.88
2023-10-01T11:59:21.592Z,102478.38
2023-10-01T12:04:45.811Z,102475.78
2023-10-01T12:09:51.882Z,102497.59
2023-10-01T12:14:56.377Z,102498.47
2023-10-01T12:20:03.504Z,102517.97
2023-10-01T12:25:08.305Z,102508.19
2023-10-01T12:30:30.258Z,102517.88
2023-10-01T12:35:35.896Z,102511.63
2023-10-01T12:40:42.309Z,102513.41
2023-10-01T12:45:48.867Z,102522.13
2023-10-01T12:51:08.810Z,102506.34
2023-10-01T12:56:11.422Z,102509.09
2023-10-01T13:01:39.253Z,102513.44
2023-10-01T13:06:41.322Z,102506.19
2023-10-01T13:11:52.050Z,102502.50
2023-10-01T13:16:54.014Z,102516.72
2023-10-01T13:21:55.850Z,102514.78
2023-10-01T13:27:15.940Z,102525.63
2023-10-01T13:32:28.015Z,102505.56
2023-10-01T13:37:36.746Z,102509.84
2023-10-01T13:42:57.336Z,102508.84
2023-10-01T13:48:17.742Z,102514.88
2023-10-01T13:53:38.465Z,102546.81
2023-10-01T13:59:01.569Z,102564.41
2023-10-01T14:04:28.745Z,102568.75
2023-10-01T14:09:50.299Z,102569.63
2023-10-01T14:14:55.173Z,102566.88
2023-10-01T14:19:59.689Z,102556.50
2023-10-01T14:25:23.580Z,102561.78
2023-10-01T14:30:25.651Z,102577.63
2023-10-01T14:35:39.173Z,102572.28
2023-10-01T14:40:45.503Z,102575.00
2023-10-01T14:45:53.551Z,102582.00
2023-10-01T14:50:58.248Z,102578.56
2023-10-01T14:56:05.829Z,102569.00
2023-10-01T15:01:09.995Z,102563.69
2023-10-01T15:06:19.185Z,102563.69
2023-10-01T15:11:20.797Z,102557.50
2023-10-01T15:16:39.154Z,102560.16
2023-10-01T15:21:47.403Z,102559.25
2023-10-01T15:26:49.658Z,102566.25
2023-10-01T15:31:53.000Z,102572.44
2023-10-01T15:37:03.556Z,102564.56
2023-10-01T15:42:24.113Z,102568.06
2023-10-01T15:47:37.851Z,102561.06
2023-10-01T15:52:47.895Z,102556.69
2023-10-01T15:58:02.831Z,102541.75
2023-10-01T16:03:11.486Z,102540.06
2023-10-01T16:08:21.503Z,102539.16
2023-10-01T16:13:29.941Z,102539.22
2023-10-01T16:18:34.306Z,102540.13
2023-10-01T16:23:39.985Z,102537.53
2023-10-01T16:28:43.853Z,102541.91
2023-10-01T16:33:47.814Z,102534.03
2023-10-01T16:38:52.420Z,102513.00
2023-10-01T16:43:54.691Z,102456.91
2023-10-01T16:49:04.433Z,102396.44
2023-10-01T16:54:18.372Z,102332.47
2023-10-01T16:59:24.381Z,102278.19
2023-10-01T17:04:29.736Z,102247.53
2023-10-01T17:09:35.323Z,102211.63
2023-10-01T17:14:37.757Z,102199.38
2023-10-01T17:19:40.665Z,102173.13
2023-10-01T17:24:47.794Z,102146.00
2023-10-01T17:29:50.626Z,102120.59
2023-10-01T17:34:53.552Z,102097.81
2023-10-01T17:39:57.630Z,102085.56
2023-10-01T17:45:01.892Z,102065.41
2023-10-01T17:50:06.068Z,102033.97
2023-10-01T17:55:22.044Z,102033.06
2023-10-01T18:00:42.705Z,102025.16
2023-10-01T18:06:00.011Z,102026.91
2023-10-01T18:11:12.052Z,102025.03
2023-10-01T18:16:26.701Z,102018.88
2023-10-01T18:21:30.110Z,102028.41
2023-10-01T18:26:32.186Z,102013.53
2023-10-01T18:31:34.534Z,102018.72
2023-10-01T18:36:36.131Z,102018.69
2023-10-01T18:41:37.627Z,102001.22
2023-10-01T18:46:40.030Z,102005.47
2023-10-01T18:51:41.664Z,102001.09
2023-10-01T18:56:49.785Z,102006.38
2023-10-01T19:02:00.674Z,102001.84
2023-10-01T19:07:03.378Z,101986.81
2023-10-01T19:12:06.384Z,101979.75
2023-10-01T19:17:12.362Z,101980.56
2023-10-01T19:22:14.131Z,101971.78
2023-10-01T19:27:18.625Z,101965.72
2023-10-01T19:32:23.233Z,101962.94
2023-10-01T19:37:29.954Z,101942.81
2023-10-01T19:42:33.433Z,101942.69
2023-10-01T19:48:10.053Z,101933.09
2023-10-01T19:53:20.616Z,101930.41
2023-10-01T19:58:33.532Z,101931.97
2023-10-01T20:03:36.712Z,101925.06
2023-10-01T20:08:40.626Z,101914.50
2023-10-01T20:13:48.500Z,101908.28
2023-10-01T20:18:59.449Z,101884.78
2023-10-01T20:24:01.505Z,101882.97
2023-10-01T20:29:04.108Z,101868.91
2023-10-01T20:34:05.802Z,101862.72
2023-10-01T20:39:07.533Z,101848.72
2023-10-01T20:44:09.516Z,101835.56
2023-10-01T20:49:11.172Z,101818.25
2023-10-01T20:54:15.392Z,101808.63
2023-10-01T20:59:18.399Z,101786.91
2023-10-01T21:04:29.671Z,101786.06
2023-10-01T21:09:39.890Z,101780.03
2023-10-01T21:14:50.757Z,101773.97
2023-10-01T21:19:55.850Z,101767.94
2023-10-01T21:24:59.959Z,101767.00
2023-10-01T21:30:01.816Z,101773.00
2023-10-01T21:35:03.627Z,101759.72
2023-10-01T21:40:08.094Z,101748.34
2023-10-01T21:45:33.329Z,101743.03
2023-10-01T21:50:41.149Z,101739.41
2023-10-01T21:55:45.826Z,101731.50
2023-10-01T22:01:25.427Z,101738.28
2023-10-01T22:06:37.609Z,101724.38
2023-10-01T22:11:42.626Z,101717.34
2023-10-01T22:17:07.116Z,101699.88
2023-10-01T22:22:09.317Z,101698.94
2023-10-01T22:27:17.792Z,101700.66
2023-10-01T22:32:20.655Z,101697.97
2023-10-01T22:37:23.906Z,101689.38
2023-10-01T22:42:35.325Z,101695.44
2023-10-01T22:47:43.249Z,101716.09
2023-10-01T22:52:47.628Z,101708.06
2023-10-01T22:57:53.317Z,101706.22
2023-10-01T23:03:03.168Z,101706.22
2023-10-01T23:08:10.929Z,101678.38
2023-10-01T23:13:13.040Z,101711.31
2023-10-01T23:18:27.028Z,101716.78
2023-10-01T23:23:30.657Z,101722.66
2023-10-01T23:28:34.883Z,101710.41
2023-10-01T23:33:38.418Z,101700.84
2023-10-01T23:39:00.843Z,101700.84
2023-10-01T23:44:03.755Z,101700.81
2023-10-01T23:49:06.313Z,101706.03
2023-10-01T23:54:11.178Z,101722.41
2023-10-01T23:59:26.911Z,101715.41
